Time;durP1;ratioP1;P1;durP2;ratioP2;P2;SDS_P1;SDS_P2;PMS_P1;PMS_P2;Temp;Humidity;BMP_temperature;BMP_pressure;BME280_temperature;BME280_humidity;BME280_pressure;Samples;Min_cycle;Max_cycle;Signal;HPM_P1;HPM_P2
2022/02/18 00:01:39;;;;;;;18.63;10.38;;;;;;;4.61;100.00;97134.78;4981635;28;20062;-58
2022/02/18 00:04:23;;;;;;;18.85;10.38;;;;;;;4.55;100.00;97124.50;4976994;28;20065;-61
2022/02/18 00:07:08;;;;;;;13.63;8.43;;;;;;;4.38;100.00;97098.06;4983058;28;20470;-56
2022/02/18 00:09:52;;;;;;;15.15;9.57;;;;;;;4.47;100.00;97120.44;4975365;28;20054;-57
2022/02/18 00:12:37;;;;;;;15.38;8.93;;;;;;;4.18;100.00;97092.72;4982405;28;20065;-59
2022/02/18 00:15:24;;;;;;;14.27;8.57;;;;;;;4.37;100.00;97090.25;4974201;28;20104;-57
2022/02/18 00:18:10;;;;;;;14.57;8.43;;;;;;;4.63;100.00;97135.56;4973439;28;20439;-60
2022/02/18 00:20:55;;;;;;;14.55;8.40;;;;;;;4.58;100.00;97141.91;4982664;28;20053;-58
2022/02/18 00:23:39;;;;;;;13.80;8.10;;;;;;;4.53;100.00;97143.84;4980135;28;20146;-57
2022/02/18 00:26:24;;;;;;;12.20;8.07;;;;;;;4.52;100.00;97132.50;4973892;28;20789;-58
2022/02/18 00:29:08;;;;;;;10.55;7.03;;;;;;;4.71;100.00;97116.91;4977109;28;20100;-59
2022/02/18 00:31:53;;;;;;;12.88;7.88;;;;;;;4.55;100.00;97139.41;4972338;28;20049;-58
2022/02/18 00:34:42;;;;;;;13.73;6.60;;;;;;;4.44;100.00;97124.06;4967122;28;20057;-59
2022/02/18 00:37:28;;;;;;;12.68;6.90;;;;;;;4.53;100.00;97115.84;4980061;28;20053;-57
2022/02/18 00:40:13;;;;;;;11.95;7.80;;;;;;;4.62;100.00;97107.63;4977692;28;20092;-58
2022/02/18 00:42:59;;;;;;;14.05;6.97;;;;;;;4.63;100.00;97109.31;4962005;28;20049;-57
2022/02/18 00:45:44;;;;;;;10.57;6.63;;;;;;;4.55;100.00;97119.25;4952451;28;20062;-59
2022/02/18 00:48:28;;;;;;;11.80;7.43;;;;;;;4.67;100.00;97110.91;4971081;28;20052;-58
2022/02/18 00:51:13;;;;;;;14.20;7.38;;;;;;;4.49;100.00;97067.03;4977071;28;20080;-56
2022/02/18 00:53:57;;;;;;;10.57;7.32;;;;;;;4.59;100.00;97060.50;4952235;28;20049;-54
2022/02/18 00:56:42;;;;;;;15.48;8.07;;;;;;;4.84;100.00;97112.88;4964746;28;20102;-57
2022/02/18 00:59:26;;;;;;;11.80;6.50;;;;;;;4.62;100.00;97104.13;4971296;28;20108;-55
2022/02/18 01:02:10;;;;;;;11.00;6.93;;;;;;;4.64;100.00;97116.28;4985531;28;20092;-56
2022/02/18 01:04:55;;;;;;;11.80;7.05;;;;;;;4.67;100.00;97079.44;4975623;28;20185;-56
2022/02/18 01:07:40;;;;;;;10.48;6.55;;;;;;;4.80;100.00;97111.28;4985729;28;20049;-56
2022/02/18 01:10:25;;;;;;;12.82;6.47;;;;;;;4.69;100.00;97121.34;4972262;28;20097;-62
2022/02/18 01:13:09;;;;;;;11.40;6.70;;;;;;;4.66;100.00;97114.47;4992440;28;20065;-59
2022/02/18 01:15:55;;;;;;;9.00;6.68;;;;;;;4.64;100.00;97097.06;4948387;28;20755;-59
2022/02/18 01:18:39;;;;;;;;;;;;;;;4.62;100.00;97133.00;4984293;28;20176;-57
2022/02/18 01:21:25;;;;;;;9.30;5.68;;;;;;;4.69;100.00;97131.84;4991024;28;20397;-57
2022/02/18 01:24:10;;;;;;;10.52;6.20;;;;;;;4.75;100.00;97134.25;4991053;28;20144;-56
2022/02/18 01:26:55;;;;;;;9.98;6.18;;;;;;;4.77;100.00;97140.28;4990077;28;20180;-58
2022/02/18 01:29:40;;;;;;;10.10;6.25;;;;;;;4.67;100.00;97133.69;4984529;28;20558;-61
2022/02/18 01:32:25;;;;;;;11.10;7.07;;;;;;;4.64;100.00;97118.91;4977822;28;20077;-60
2022/02/18 01:35:10;;;;;;;10.80;6.28;;;;;;;4.74;100.00;97138.63;4983963;28;20414;-59
2022/02/18 01:37:55;;;;;;;10.45;6.80;;;;;;;4.61;100.00;97142.66;4990480;28;20111;-57
2022/02/18 01:40:41;;;;;;;10.95;5.82;;;;;;;4.46;100.00;97121.38;4972714;28;20069;-58
2022/02/18 01:43:25;;;;;;;9.02;6.18;;;;;;;4.66;100.00;97156.44;4986847;28;20429;-56
2022/02/18 01:46:10;;;;;;;8.95;5.80;;;;;;;4.40;100.00;97119.84;4990032;28;20112;-58
2022/02/18 01:48:55;;;;;;;9.73;5.97;;;;;;;4.59;100.00;97149.72;4991552;28;20052;-61
2022/02/18 01:51:43;;;;;;;10.48;6.32;;;;;;;4.39;100.00;97112.03;4978754;28;20218;-58
2022/02/18 01:54:28;;;;;;;12.90;6.43;;;;;;;4.78;100.00;97168.22;4985086;28;20065;-58
2022/02/18 01:57:14;;;;;;;9.97;5.63;;;;;;;4.68;100.00;97159.00;4974706;28;20077;-57
2022/02/18 01:59:59;;;;;;;9.80;5.63;;;;;;;4.61;100.00;97168.03;4972609;28;20133;-60
2022/02/18 02:02:45;;;;;;;9.75;6.05;;;;;;;4.65;100.00;97154.75;4993540;28;20530;-56
2022/02/18 02:05:31;;;;;;;8.68;5.57;;;;;;;4.44;100.00;97105.69;4991742;28;20048;-59
2022/02/18 02:08:17;;;;;;;8.68;6.15;;;;;;;4.78;100.00;97157.72;4960766;28;20049;-61
2022/02/18 02:11:05;;;;;;;9.23;5.95;;;;;;;4.75;100.00;97165.75;4974315;28;20490;-58
2022/02/18 02:13:52;;;;;;;10.57;6.10;;;;;;;4.90;100.00;97166.00;4976281;28;20752;-59
2022/02/18 02:16:41;;;;;;;12.68;6.18;;;;;;;4.76;100.00;97189.28;4977699;28;20483;-61
2022/02/18 02:19:27;;;;;;;10.25;5.93;;;;;;;4.70;100.00;97163.28;4974342;28;20064;-61
2022/02/18 02:22:15;;;;;;;9.75;6.43;;;;;;;4.82;100.00;97159.31;4986968;28;20053;-59
2022/02/18 02:25:00;;;;;;;10.82;5.90;;;;;;;4.75;100.00;97165.75;4972351;28;20069;-62
2022/02/18 02:27:48;;;;;;;9.07;6.18;;;;;;;4.89;100.00;97161.66;4974338;28;20103;-58
2022/02/18 02:30:33;;;;;;;10.23;6.18;;;;;;;4.90;100.00;97159.88;4986900;28;20065;-57
2022/02/18 02:33:23;;;;;;;10.50;6.40;;;;;;;4.60;100.00;97145.34;4977764;28;20626;-56
2022/02/18 02:36:10;;;;;;;11.98;6.38;;;;;;;4.71;100.00;97177.28;4974965;28;20093;-57
2022/02/18 02:38:55;;;;;;;10.52;6.43;;;;;;;4.72;100.00;97176.34;4974058;28;20429;-60
2022/02/18 02:41:40;;;;;;;12.07;6.78;;;;;;;4.80;100.00;97174.28;4974833;28;20784;-58
2022/02/18 02:44:28;;;;;;;9.60;5.45;;;;;;;4.82;100.00;97175.94;4975773;28;20058;-58
2022/02/18 02:47:24;;;;;;;8.68;5.40;;;;;;;4.71;100.00;97185.16;4965909;28;20184;-58
2022/02/18 02:50:16;;;;;;;11.95;6.90;;;;;;;4.85;100.00;97178.44;4987493;28;20050;-58
2022/02/18 02:53:01;;;;;;;12.38;6.68;;;;;;;4.59;100.00;97186.44;4987773;28;20098;-63
2022/02/18 02:55:45;;;;;;;11.13;6.70;;;;;;;4.44;100.00;97149.44;4987134;28;20084;-59
2022/02/18 02:58:34;;;;;;;13.73;6.95;;;;;;;4.69;100.00;97186.94;4958653;28;20076;-59
2022/02/18 03:01:20;;;;;;;10.45;6.68;;;;;;;4.75;100.00;97194.59;4990930;28;20181;-59
2022/02/18 03:04:07;;;;;;;10.25;6.45;;;;;;;4.68;100.00;97199.22;4986338;28;20049;-60
2022/02/18 03:06:52;;;;;;;8.02;5.63;;;;;;;4.69;100.00;97200.06;4975588;28;20427;-58
2022/02/18 03:09:36;;;;;;;9.45;6.10;;;;;;;4.71;100.00;97204.34;4984384;28;20093;-57
2022/02/18 03:12:34;;;;;;;11.45;6.57;;;;;;;4.50;100.00;97194.66;4980325;28;20053;-59
2022/02/18 03:15:26;;;;;;;9.32;6.53;;;;;;;4.69;100.00;97192.19;4973597;28;20101;-59
2022/02/18 03:18:11;;;;;;;10.85;6.57;;;;;;;4.81;100.00;97208.34;4985477;28;20058;-56
2022/02/18 03:20:59;;;;;;;11.38;6.35;;;;;;;4.66;100.00;97171.31;4988238;28;20486;-67
2022/02/18 03:23:47;;;;;;;11.82;5.95;;;;;;;4.85;100.00;97202.06;4971220;28;20077;-60
2022/02/18 03:26:33;;;;;;;9.98;6.03;;;;;;;4.81;100.00;97204.84;4981712;28;20162;-65
2022/02/18 03:29:26;;;;;;;8.40;5.70;;;;;;;4.88;100.00;97222.09;4934549;29;20054;-65
2022/02/18 03:32:28;;;;;;;11.75;6.55;;;;;;;4.67;100.00;97217.66;4930551;28;20109;-56
2022/02/18 03:35:13;;;;;;;9.55;5.97;;;;;;;4.56;100.00;97209.31;4952618;28;20504;-60
2022/02/18 03:38:02;;;;;;;11.55;6.78;;;;;;;4.56;100.00;97204.09;4953552;28;20129;-61
2022/02/18 03:40:58;;;;;;;10.45;6.45;;;;;;;4.84;100.00;97210.84;4955117;28;20045;-59
2022/02/18 03:43:43;;;;;;;9.57;5.68;;;;;;;4.79;100.00;97214.56;4948166;28;20126;-61
2022/02/18 03:46:44;;;;;;;9.63;5.95;;;;;;;4.44;100.00;97201.91;4947764;28;20101;-58
2022/02/18 03:49:29;;;;;;;8.43;5.35;;;;;;;4.57;100.00;97224.16;4957987;28;20064;-60
2022/02/18 03:52:13;;;;;;;12.43;7.20;;;;;;;4.65;100.00;97219.47;4931687;29;20106;-57
2022/02/18 03:54:57;;;;;;;8.50;4.93;;;;;;;4.61;100.00;97225.75;4949742;28;20054;-62
2022/02/18 03:57:42;;;;;;;7.85;5.13;;;;;;;4.70;100.00;97223.63;4954635;28;20101;-55
2022/02/18 04:00:27;;;;;;;7.05;5.10;;;;;;;4.58;100.00;97184.75;4933222;28;20050;-63
2022/02/18 04:03:20;;;;;;;8.73;5.28;;;;;;;4.69;100.00;97231.56;4941685;28;20074;-56
2022/02/18 04:06:24;;;;;;;8.40;5.40;;;;;;;4.47;100.00;97197.41;4951977;28;20061;-58
2022/02/18 04:09:12;;;;;;;11.10;6.13;;;;;;;4.64;100.00;97241.38;4923293;28;20181;-59
2022/02/18 04:12:06;;;;;;;8.23;5.32;;;;;;;4.68;100.00;97245.59;4958069;28;20054;-62
2022/02/18 04:14:55;;;;;;;7.40;5.03;;;;;;;4.47;100.00;97246.38;4926461;28;20061;-62
2022/02/18 04:17:41;;;;;;;9.10;5.15;;;;;;;4.42;100.00;97237.81;4937752;28;20686;-64
2022/02/18 04:20:35;;;;;;;8.73;5.40;;;;;;;4.51;100.00;97245.38;4950714;28;20214;-62
2022/02/18 04:23:19;;;;;;;7.55;5.53;;;;;;;4.64;100.00;97246.63;4930755;28;20712;-62
2022/02/18 04:26:04;;;;;;;9.32;5.78;;;;;;;4.66;100.00;97247.41;4933528;28;20142;-72
2022/02/18 04:28:50;;;;;;;9.88;5.63;;;;;;;4.51;100.00;97238.34;4948059;28;20077;-62
2022/02/18 04:31:35;;;;;;;8.38;5.65;;;;;;;4.66;100.00;97250.03;4944497;28;20565;-62
2022/02/18 04:34:19;;;;;;;8.93;6.20;;;;;;;4.41;100.00;97257.97;4968690;28;20176;-64
2022/02/18 04:37:04;;;;;;;9.50;6.10;;;;;;;4.48;100.00;97248.09;4948252;28;20065;-64
2022/02/18 04:39:49;;;;;;;9.47;5.70;;;;;;;4.63;100.00;97251.00;4957578;28;20459;-63
2022/02/18 04:42:34;;;;;;;9.45;5.90;;;;;;;4.70;100.00;97242.00;4957105;28;20117;-69
2022/02/18 04:45:18;;;;;;;9.95;6.45;;;;;;;4.63;100.00;97256.25;4958638;28;20119;-64
2022/02/18 04:48:04;;;;;;;10.63;6.10;;;;;;;4.71;100.00;97259.47;4931173;28;20163;-70
2022/02/18 04:50:49;;;;;;;9.25;5.80;;;;;;;4.59;100.00;97245.94;4916497;28;20404;-67
2022/02/18 04:53:33;;;;;;;10.18;6.20;;;;;;;4.83;100.00;97259.00;4946331;28;20587;-68
2022/02/18 04:56:17;;;;;;;10.48;6.22;;;;;;;4.74;100.00;97269.84;4956370;28;20050;-64
2022/02/18 04:59:02;;;;;;;10.10;6.30;;;;;;;4.80;100.00;97266.97;4958093;28;20069;-61
2022/02/18 05:01:47;;;;;;;10.95;5.80;;;;;;;4.79;100.00;97260.03;4960935;28;20073;-61
2022/02/18 05:04:31;;;;;;;7.78;5.45;;;;;;;4.60;100.00;97287.00;4953392;28;20675;-61
2022/02/18 05:07:16;;;;;;;10.52;6.65;;;;;;;4.53;100.00;97251.41;4969199;28;20185;-62
2022/02/18 05:10:05;;;;;;;11.43;6.57;;;;;;;4.55;100.00;97271.44;4959936;28;20050;-63
2022/02/18 05:12:49;;;;;;;10.70;6.55;;;;;;;4.52;100.00;97262.81;4958097;28;20112;-62
2022/02/18 05:15:35;;;;;;;12.65;6.70;;;;;;;4.34;100.00;97219.75;4946362;28;20053;-63
2022/02/18 05:18:19;;;;;;;9.55;6.32;;;;;;;4.50;100.00;97264.63;4950844;28;20171;-64
2022/02/18 05:21:06;;;;;;;12.98;7.18;;;;;;;4.51;100.00;97277.69;4981798;28;20088;-62
2022/02/18 05:23:51;;;;;;;14.93;7.78;;;;;;;4.67;100.00;97275.38;4933462;28;20050;-69
2022/02/18 05:26:36;;;;;;;12.55;7.00;;;;;;;4.67;100.00;97267.53;4936733;28;20119;-61
2022/02/18 05:29:21;;;;;;;9.68;6.80;;;;;;;4.79;100.00;97273.16;4911826;28;20098;-56
2022/02/18 05:32:06;;;;;;;11.85;7.30;;;;;;;4.87;100.00;97278.13;4957517;28;20582;-57
2022/02/18 05:34:50;;;;;;;;;;;;;;;4.98;100.00;97289.06;4961595;28;20506;-59
2022/02/18 05:37:35;;;;;;;12.68;7.30;;;;;;;4.70;100.00;97249.88;4957083;28;19929;-57
2022/02/18 05:40:19;;;;;;;12.82;7.45;;;;;;;4.90;100.00;97299.88;4958844;28;20091;-61
2022/02/18 05:43:04;;;;;;;12.38;7.85;;;;;;;5.08;100.00;97295.69;4952307;28;20057;-64
2022/02/18 05:45:48;;;;;;;11.88;7.13;;;;;;;5.08;100.00;97290.44;4933191;28;20190;-55
2022/02/18 05:48:33;;;;;;;14.97;7.50;;;;;;;4.99;100.00;97301.31;4954914;28;20053;-59
2022/02/18 05:51:18;;;;;;;;;;;;;;;5.01;100.00;97302.09;4955196;28;20869;-59
2022/02/18 05:54:03;;;;;;;12.10;7.72;;;;;;;4.93;100.00;97301.50;4954998;28;19978;-56
2022/02/18 05:56:50;;;;;;;11.52;6.88;;;;;;;4.69;100.00;97300.66;4956056;28;20109;-57
2022/02/18 05:59:35;;;;;;;14.88;7.75;;;;;;;4.72;100.00;97279.53;4944899;28;20121;-58
2022/02/18 06:02:20;;;;;;;12.48;6.78;;;;;;;4.64;100.00;97309.59;4944790;28;20186;-60
2022/02/18 06:05:06;;;;;;;15.45;7.65;;;;;;;4.75;100.00;97308.28;4964393;28;20099;-62
2022/02/18 06:07:51;;;;;;;12.10;7.53;;;;;;;4.82;100.00;97309.78;4963494;28;20139;-54
2022/02/18 06:10:36;;;;;;;11.25;6.50;;;;;;;4.77;100.00;97318.75;4946913;28;20050;-60
2022/02/18 06:13:21;;;;;;;15.27;7.35;;;;;;;4.80;100.00;97322.09;4942157;28;20958;-56
2022/02/18 06:16:05;;;;;;;10.50;6.53;;;;;;;4.59;100.00;97314.16;4965952;28;20061;-65
2022/02/18 06:18:50;;;;;;;12.02;6.63;;;;;;;4.44;100.00;97289.31;4969173;28;20101;-64
2022/02/18 06:21:37;;;;;;;10.85;6.80;;;;;;;4.73;100.00;97336.38;4945651;28;20081;-63
2022/02/18 06:24:21;;;;;;;12.23;6.93;;;;;;;4.88;100.00;97341.06;4960195;28;20143;-60
2022/02/18 06:27:07;;;;;;;11.75;5.57;;;;;;;4.59;100.00;97336.00;4964760;28;20100;-57
2022/02/18 06:29:53;;;;;;;11.15;5.55;;;;;;;4.58;100.00;97347.41;4991003;28;20049;-55
2022/02/18 06:32:38;;;;;;;10.00;6.35;;;;;;;4.66;100.00;97355.00;4987613;28;20482;-52
2022/02/18 06:35:22;;;;;;;9.88;5.90;;;;;;;4.64;100.00;97352.44;4982883;28;20128;-58
2022/02/18 06:38:07;;;;;;;11.48;6.82;;;;;;;4.52;100.00;97334.50;4976615;28;20085;-56
2022/02/18 06:40:52;;;;;;;9.95;5.35;;;;;;;4.92;100.00;97361.03;4967370;28;20142;-63
2022/02/18 06:43:37;;;;;;;9.95;5.15;;;;;;;4.57;100.00;97347.47;4981463;28;20053;-61
2022/02/18 06:46:24;;;;;;;11.10;6.15;;;;;;;4.57;100.00;97366.69;4984668;28;20120;-61
2022/02/18 06:49:09;;;;;;;7.63;5.68;;;;;;;4.71;100.00;97368.84;4988236;28;20109;-63
2022/02/18 06:51:56;;;;;;;10.85;6.38;;;;;;;4.71;100.00;97366.22;4983474;28;20049;-61
2022/02/18 06:54:41;;;;;;;11.15;5.57;;;;;;;4.56;100.00;97379.88;4979700;28;20089;-61
2022/02/18 06:57:27;;;;;;;10.30;5.65;;;;;;;4.34;100.00;97382.34;4973740;28;20048;-62
2022/02/18 07:00:14;;;;;;;8.52;5.05;;;;;;;4.12;100.00;97381.34;4971930;28;20058;-63
2022/02/18 07:02:58;;;;;;;10.50;5.15;;;;;;;3.96;100.00;97353.06;4974318;28;20073;-63
2022/02/18 07:05:48;;;;;;;8.75;5.00;;;;;;;4.23;100.00;97386.22;4980595;28;20518;-61
2022/02/18 07:08:33;;;;;;;9.75;5.60;;;;;;;4.30;100.00;97396.47;4969612;28;20144;-67
2022/02/18 07:11:21;;;;;;;11.73;5.90;;;;;;;4.16;100.00;97340.16;4983708;28;20093;-63
2022/02/18 07:14:09;;;;;;;8.35;5.18;;;;;;;4.30;100.00;97390.38;4973148;28;20054;-61
2022/02/18 07:16:54;;;;;;;6.85;4.65;;;;;;;4.20;100.00;97392.44;4971927;28;20081;-64
2022/02/18 07:19:41;;;;;;;8.43;4.88;;;;;;;4.34;100.00;97391.97;4986777;28;20048;-62
2022/02/18 07:22:26;;;;;;;11.98;5.13;;;;;;;4.34;100.00;97392.84;4983332;28;20092;-63
2022/02/18 07:25:14;;;;;;;7.55;5.13;;;;;;;4.22;100.00;97364.41;4973453;28;20045;-62
2022/02/18 07:27:58;;;;;;;7.22;4.65;;;;;;;4.38;100.00;97398.84;4970585;28;20451;-63
2022/02/18 07:30:44;;;;;;;8.32;5.35;;;;;;;4.40;100.00;97404.91;4965387;28;20574;-62
2022/02/18 07:33:28;;;;;;;7.25;4.60;;;;;;;4.37;100.00;97413.75;4945696;28;20476;-63
2022/02/18 07:36:12;;;;;;;8.95;4.93;;;;;;;4.37;100.00;97410.25;4962001;28;20098;-63
2022/02/18 07:38:57;;;;;;;6.50;4.57;;;;;;;4.32;100.00;97399.91;4958483;28;20086;-62
2022/02/18 07:41:41;;;;;;;7.32;4.55;;;;;;;4.34;100.00;97423.44;4959469;28;20061;-63
2022/02/18 07:44:26;;;;;;;7.53;4.63;;;;;;;4.04;100.00;97378.09;4944512;28;20075;-62
2022/02/18 07:47:10;;;;;;;9.35;4.90;;;;;;;4.36;100.00;97427.72;4956340;28;20058;-68
2022/02/18 07:49:55;;;;;;;7.40;4.60;;;;;;;4.32;100.00;97431.38;4960441;28;20053;-67
2022/02/18 07:52:39;;;;;;;8.48;5.03;;;;;;;4.26;100.00;97426.34;4957184;28;20106;-62
2022/02/18 07:55:24;;;;;;;8.20;5.22;;;;;;;4.19;100.00;97442.28;4943914;28;20078;-63
2022/02/18 07:58:08;;;;;;;12.70;5.35;;;;;;;4.44;100.00;97448.50;4958807;28;20070;-63
2022/02/18 08:00:53;;;;;;;10.75;5.85;;;;;;;4.53;100.00;97456.03;4957686;28;20050;-62
2022/02/18 08:03:37;;;;;;;7.30;4.93;;;;;;;4.41;100.00;97459.94;4958924;28;20050;-61
2022/02/18 08:06:22;;;;;;;8.32;5.95;;;;;;;4.36;100.00;97461.84;4960355;28;20463;-68
2022/02/18 08:09:06;;;;;;;7.50;5.50;;;;;;;4.46;100.00;97452.78;4958746;28;20233;-64
2022/02/18 08:11:51;;;;;;;6.95;4.53;;;;;;;4.30;100.00;97421.84;4937864;29;20058;-62
2022/02/18 08:14:36;;;;;;;8.45;5.70;;;;;;;4.53;100.00;97466.53;4958707;28;20249;-65
2022/02/18 08:17:21;;;;;;;8.13;5.85;;;;;;;4.49;100.00;97468.41;4929722;28;20062;-65
2022/02/18 08:20:07;;;;;;;11.48;6.80;;;;;;;4.45;100.00;97461.56;4957165;28;20074;-65
2022/02/18 08:22:52;;;;;;;9.02;5.90;;;;;;;4.17;100.00;97403.03;4959142;28;20053;-62
2022/02/18 08:25:36;;;;;;;10.70;6.15;;;;;;;4.62;100.00;97477.59;4957799;28;20130;-67
2022/02/18 08:28:21;;;;;;;11.45;7.35;;;;;;;4.37;100.00;97426.84;4973608;28;20105;-64
2022/02/18 08:31:05;;;;;;;9.98;7.30;;;;;;;4.53;100.00;97477.03;4976333;28;20082;-64
2022/02/18 08:33:50;;;;;;;10.13;6.80;;;;;;;4.53;100.00;97483.16;4980426;28;20384;-62
2022/02/18 08:36:35;;;;;;;11.77;6.32;;;;;;;4.60;100.00;97482.03;4971380;28;20097;-64
2022/02/18 08:39:19;;;;;;;9.55;6.30;;;;;;;4.77;100.00;97490.22;4976012;28;20587;-63
2022/02/18 08:42:06;;;;;;;;;;;;;;;4.84;100.00;97501.34;4976246;28;20065;-63
2022/02/18 08:44:51;;;;;;;10.82;5.28;;;;;;;4.66;100.00;97500.19;4958354;28;19972;-67
2022/02/18 08:47:36;;;;;;;10.70;5.90;;;;;;;4.81;100.00;97504.09;4979065;28;20116;-63
2022/02/18 08:50:20;;;;;;;8.70;5.30;;;;;;;4.94;100.00;97521.13;4974851;28;20541;-63
2022/02/18 08:53:05;;;;;;;9.32;4.95;;;;;;;5.07;100.00;97514.56;4976447;28;20588;-65
2022/02/18 08:55:49;;;;;;;8.73;4.47;;;;;;;5.17;100.00;97538.75;4971082;28;20050;-63
2022/02/18 08:58:34;;;;;;;5.32;3.45;;;;;;;5.02;100.00;97529.59;4975900;28;20134;-67
2022/02/18 09:01:19;;;;;;;4.65;2.80;;;;;;;4.91;100.00;97532.59;4979706;28;20446;-61
2022/02/18 09:04:04;;;;;;;4.50;2.35;;;;;;;4.94;100.00;97544.75;4977010;28;20090;-69
2022/02/18 09:06:49;;;;;;;4.55;2.75;;;;;;;4.83;100.00;97529.38;4951104;28;20050;-61
2022/02/18 09:09:34;;;;;;;5.43;3.38;;;;;;;4.93;100.00;97538.66;4977382;28;20065;-62
2022/02/18 09:12:20;;;;;;;6.35;3.30;;;;;;;5.00;100.00;97505.19;4975963;28;20104;-63
2022/02/18 09:15:06;;;;;;;7.38;4.18;;;;;;;5.26;100.00;97547.16;4976296;28;20042;-67
2022/02/18 09:17:50;;;;;;;6.28;4.30;;;;;;;5.62;100.00;97558.16;4943618;28;20415;-62
2022/02/18 09:20:35;;;;;;;7.65;4.20;;;;;;;5.58;100.00;97554.75;4974480;28;20144;-64
2022/02/18 09:23:19;;;;;;;3.88;2.70;;;;;;;5.73;100.00;97558.63;4974622;28;20053;-65
2022/02/18 09:26:05;;;;;;;6.88;3.67;;;;;;;5.93;100.00;97559.63;4978212;28;20410;-60
2022/02/18 09:28:49;;;;;;;4.43;2.50;;;;;;;5.94;100.00;97529.81;4969626;28;20066;-61
2022/02/18 09:31:36;;;;;;;4.38;2.08;;;;;;;6.28;100.00;97584.63;4976687;28;20089;-65
2022/02/18 09:34:26;;;;;;;4.38;2.35;;;;;;;6.15;100.00;97578.97;4978449;28;20101;-64
2022/02/18 09:37:15;;;;;;;4.45;2.40;;;;;;;5.83;100.00;97587.19;4984478;28;20063;-62
2022/02/18 09:39:59;;;;;;;2.80;2.00;;;;;;;5.76;100.00;97598.81;4981138;28;20135;-61
2022/02/18 09:42:49;;;;;;;3.67;2.20;;;;;;;5.76;100.00;97605.81;4978086;28;20061;-61
2022/02/18 09:45:33;;;;;;;3.60;2.28;;;;;;;6.00;100.00;97605.84;4970004;28;20144;-62
2022/02/18 09:48:18;;;;;;;3.45;2.28;;;;;;;6.10;100.00;97601.09;4982160;28;20100;-61
2022/02/18 09:51:03;;;;;;;6.45;2.40;;;;;;;6.33;100.00;97606.38;4985214;28;20156;-63
2022/02/18 09:53:48;;;;;;;4.38;2.58;;;;;;;6.31;100.00;97614.31;4968367;28;20433;-61
2022/02/18 09:56:34;;;;;;;3.95;2.40;;;;;;;6.33;100.00;97624.78;4952509;28;20137;-68
2022/02/18 09:59:18;;;;;;;4.20;2.10;;;;;;;6.47;100.00;97593.53;4982715;28;20141;-64
2022/02/18 10:02:04;;;;;;;6.05;2.67;;;;;;;6.30;100.00;97596.84;4985934;28;20057;-65
2022/02/18 10:04:49;;;;;;;5.05;2.72;;;;;;;6.59;100.00;97629.91;4972840;28;20069;-62
2022/02/18 10:07:54;;;;;;;7.63;4.35;;;;;;;6.15;100.00;97612.31;4972092;28;20363;-64
2022/02/18 10:10:41;;;;;;;10.88;5.53;;;;;;;6.21;100.00;97659.47;4985076;28;20486;-64
2022/02/18 10:13:34;;;;;;;8.88;5.18;;;;;;;6.40;100.00;97652.56;4984410;28;20420;-63
2022/02/18 10:16:20;;;;;;;10.43;4.97;;;;;;;6.76;100.00;97667.00;4984493;28;20061;-62
2022/02/18 10:19:11;;;;;;;5.65;3.40;;;;;;;7.04;100.00;97659.75;4979432;28;20052;-68
2022/02/18 10:22:03;;;;;;;5.80;2.45;;;;;;;6.84;100.00;97676.31;4985341;28;20061;-63
2022/02/18 10:24:48;;;;;;;3.28;2.15;;;;;;;6.62;100.00;97666.66;4977730;28;20050;-63
2022/02/18 10:27:47;;;;;;;;;;;;;;;6.87;100.00;97659.53;4956240;28;20065;-68
2022/02/18 10:30:32;;;;;;;7.93;2.25;;;;;;;7.04;100.00;97686.94;4968788;28;20403;-63
2022/02/18 10:33:22;;;;;;;3.67;2.00;;;;;;;7.16;100.00;97685.63;4971240;28;20053;-62
2022/02/18 10:36:09;;;;;;;5.57;1.92;;;;;;;6.66;100.00;97655.09;4983721;28;20061;-66
2022/02/18 10:38:53;;;;;;;3.13;1.80;;;;;;;6.94;100.00;97674.19;4982961;28;20057;-64
2022/02/18 10:41:51;;;;;;;4.20;1.85;;;;;;;7.16;100.00;97689.09;4981654;28;20367;-63
2022/02/18 10:44:36;;;;;;;3.40;1.67;;;;;;;7.27;100.00;97705.34;4988103;28;20069;-68
2022/02/18 10:47:21;;;;;;;;;;;;;;;7.54;100.00;97709.50;4950425;28;20153;-64
2022/02/18 10:50:29;;;;;;;2.83;1.35;;;;;;;7.81;100.00;97673.22;4967794;28;19945;-61
2022/02/18 10:53:21;;;;;;;2.15;1.48;;;;;;;8.20;100.00;97725.13;4981109;28;20165;-68
2022/02/18 10:56:07;;;;;;;1.98;1.33;;;;;;;9.14;100.00;97719.13;4973947;28;20085;-60
2022/02/18 10:58:52;;;;;;;2.42;1.33;;;;;;;9.27;100.00;97692.00;4974311;28;20060;-59
2022/02/18 11:01:44;;;;;;;2.92;1.40;;;;;;;9.86;100.00;97694.41;4987766;28;20523;-60
2022/02/18 11:04:29;;;;;;;3.25;1.55;;;;;;;9.95;100.00;97701.88;4977503;28;20146;-60
2022/02/18 11:07:15;;;;;;;2.80;1.60;;;;;;;9.93;100.00;97737.28;4979741;28;20053;-59
2022/02/18 11:10:00;;;;;;;3.03;1.35;;;;;;;8.93;100.00;97710.41;4978023;28;20061;-59
2022/02/18 11:12:55;;;;;;;2.83;1.58;;;;;;;8.92;100.00;97744.81;4972671;28;20484;-58
2022/02/18 11:15:41;;;;;;;;;;;;;;;8.37;100.00;97751.72;4978393;28;20185;-60
2022/02/18 11:18:25;;;;;;;1.80;1.20;;;;;;;7.67;100.00;97755.53;4952673;28;19925;-58
2022/02/18 11:21:12;;;;;;;12.02;1.45;;;;;;;7.06;100.00;97758.88;4974508;28;20481;-59
2022/02/18 11:23:59;;;;;;;1.50;0.73;;;;;;;6.59;100.00;97775.59;4989296;28;20089;-61
2022/02/18 11:26:44;;;;;;;3.05;0.63;;;;;;;6.07;100.00;97762.53;4965357;28;20065;-59
2022/02/18 11:29:30;;;;;;;;;;;;;;;5.82;100.00;97781.81;4953408;28;20053;-66
2022/02/18 11:32:20;;;;;;;0.30;0.30;;;;;;;5.42;100.00;97781.34;4948878;28;19952;-59
2022/02/18 11:35:19;;;;;;;2.33;0.43;;;;;;;5.42;100.00;97782.19;4925191;28;20120;-61
2022/02/18 11:38:20;;;;;;;2.63;1.30;;;;;;;5.37;100.00;97799.88;4953796;28;20436;-61
2022/02/18 11:41:18;;;;;;;6.45;2.05;;;;;;;4.93;100.00;97734.72;4951000;28;20100;-62
2022/02/18 11:44:08;;;;;;;3.33;1.30;;;;;;;5.29;100.00;97820.25;4931344;28;20082;-57
2022/02/18 11:47:23;;;;;;;1.73;1.00;;;;;;;5.34;100.00;97828.03;4959804;28;20057;-62
2022/02/18 11:50:13;;;;;;;;;;;;;;;5.22;100.00;97820.50;4951469;28;20057;-62
2022/02/18 11:52:59;;;;;;;2.65;0.82;;;;;;;5.08;100.00;97816.50;4942821;28;20010;-59
2022/02/18 11:55:52;;;;;;;3.20;1.27;;;;;;;5.39;100.00;97832.22;4928997;28;20049;-58
2022/02/18 11:58:52;;;;;;;1.70;1.02;;;;;;;5.29;100.00;97830.78;4946500;28;20531;-60
2022/02/18 12:01:55;;;;;;;1.80;0.85;;;;;;;5.48;100.00;97852.09;4940921;28;20057;-64
2022/02/18 12:04:41;;;;;;;3.45;0.80;;;;;;;5.37;100.00;97848.94;4967750;28;20514;-58
2022/02/18 12:07:32;;;;;;;2.45;0.98;;;;;;;5.51;100.00;97860.75;4966729;28;20494;-58
2022/02/18 12:10:27;;;;;;;2.63;1.50;;;;;;;5.55;100.00;97865.03;4961709;28;20486;-62
2022/02/18 12:13:12;;;;;;;;;;;;;;;5.62;100.00;97861.28;4927998;29;20054;-58
2022/02/18 12:15:59;;;;;;;6.05;1.63;;;;;;;5.53;100.00;97873.88;4963011;28;19948;-61
2022/02/18 12:19:10;;;;;;;3.75;1.20;;;;;;;5.51;100.00;97887.03;4955219;28;21789;-65
2022/02/18 12:22:02;;;;;;;3.72;1.42;;;;;;;5.58;100.00;97896.44;4940795;28;20101;-64
2022/02/18 12:24:48;;;;;;;2.80;1.50;;;;;;;5.55;100.00;97893.06;4957549;28;20073;-61
2022/02/18 12:27:34;;;;;;;5.88;1.38;;;;;;;5.60;100.00;97909.53;4956898;28;20104;-56
2022/02/18 12:30:25;;;;;;;2.35;1.10;;;;;;;5.41;100.00;97868.97;4978114;28;20082;-59
2022/02/18 12:33:10;;;;;;;3.72;0.90;;;;;;;5.67;100.00;97911.97;4965898;28;20049;-60
2022/02/18 12:35:54;;;;;;;2.03;1.10;;;;;;;5.45;100.00;97883.75;4979819;28;20545;-60
2022/02/18 12:38:47;;;;;;;4.33;1.30;;;;;;;5.37;100.00;97891.84;4977604;28;20053;-61
2022/02/18 12:41:35;;;;;;;3.90;1.23;;;;;;;5.47;100.00;97918.72;4985924;28;20300;-61
2022/02/18 12:44:20;;;;;;;2.70;1.10;;;;;;;5.55;100.00;97928.09;4962796;28;20053;-63
2022/02/18 12:47:05;;;;;;;2.63;1.27;;;;;;;5.59;100.00;97937.63;4977723;28;20065;-58
2022/02/18 12:49:53;;;;;;;3.47;1.35;;;;;;;6.12;100.00;97930.72;4950531;28;20098;-60
2022/02/18 12:52:40;;;;;;;2.03;0.82;;;;;;;6.08;100.00;97893.16;4980589;28;20418;-60
2022/02/18 12:55:25;;;;;;;4.18;1.20;;;;;;;6.20;100.00;97945.38;4981998;28;20497;-60
2022/02/18 12:58:12;;;;;;;2.57;1.20;;;;;;;6.10;100.00;97943.97;4970910;28;20081;-59
2022/02/18 13:00:57;;;;;;;1.70;0.95;;;;;;;6.00;100.00;97955.66;4972359;28;20339;-62
2022/02/18 13:03:43;;;;;;;4.00;1.30;;;;;;;6.02;100.00;97959.13;4957485;28;20061;-58